Time;durP1;ratioP1;P1;durP2;ratioP2;P2;SDS_P1;SDS_P2;PMS_P1;PMS_P2;Temp;Humidity;BMP_temperature;BMP_pressure;BME280_temperature;BME280_humidity;BME280_pressure;Samples;Min_cycle;Max_cycle;Signal;HPM_P1;HPM_P2
2022/07/21 00:01:20;;;;;;;11.07;9.07;;;23.60;1.00;;;;;;5068321;28;20162;-65
2022/07/21 00:03:46;;;;;;;12.47;10.13;;;23.30;99.90;;;;;;5067365;28;20274;-63
2022/07/21 00:06:12;;;;;;;12.13;10.97;;;22.70;1.00;;;;;;5067730;28;20257;-65
2022/07/21 00:08:38;;;;;;;46.33;13.60;;;22.70;99.90;;;;;;5066476;28;20269;-65
2022/07/21 00:11:03;;;;;;;14.53;10.70;;;23.00;1.00;;;;;;5068196;28;20166;-62
2022/07/21 00:13:29;;;;;;;23.50;12.47;;;23.30;1.00;;;;;;5067460;28;20188;-65
2022/07/21 00:15:55;;;;;;;12.10;10.80;;;23.30;1.00;;;;;;5068078;28;20247;-65
2022/07/21 00:18:22;;;;;;;15.80;10.57;;;23.40;1.00;;;;;;5066698;28;20169;-65
2022/07/21 00:20:48;;;;;;;17.10;10.47;;;23.50;99.90;;;;;;5059898;28;20463;-64
2022/07/21 00:23:13;;;;;;;10.70;9.60;;;23.70;26.40;;;;;;5048013;28;20429;-65
2022/07/21 00:25:39;;;;;;;11.77;10.57;;;23.40;99.90;;;;;;5047310;28;20163;-65
2022/07/21 00:28:06;;;;;;;11.27;10.17;;;23.60;30.10;;;;;;5048378;28;20278;-64
2022/07/21 00:30:32;;;;;;;12.17;11.00;;;23.70;1.00;;;;;;5059736;28;20166;-64
2022/07/21 00:32:59;;;;;;;13.23;11.73;;;23.60;1.00;;;;;;5031391;28;20438;-64
2022/07/21 00:35:24;;;;;;;23.73;10.87;;;23.60;1.00;;;;;;5027212;28;20455;-64
2022/07/21 00:37:51;;;;;;;13.13;11.83;;;23.70;1.00;;;;;;5027044;28;20798;-65
2022/07/21 00:40:16;;;;;;;15.07;11.13;;;23.80;1.00;;;;;;5027867;28;20191;-64
2022/07/21 00:42:43;;;;;;;11.37;10.17;;;23.80;99.90;;;;;;5027927;28;20441;-64
2022/07/21 00:45:10;;;;;;;13.13;10.53;;;23.70;99.90;;;;;;5055133;28;20252;-65
2022/07/21 00:47:36;;;;;;;11.93;10.80;;;23.80;99.90;;;;;;5067242;28;20412;-65
2022/07/21 00:50:07;;;;;;;12.70;11.40;;;23.70;1.00;;;;;;5065611;28;20493;-65
2022/07/21 00:52:33;;;;;;;34.17;13.10;;;23.60;1.00;;;;;;5062312;28;20348;-64
2022/07/21 00:54:59;;;;;;;21.70;11.90;;;23.60;1.00;;;;;;5047256;28;20484;-64
2022/07/21 00:57:25;;;;;;;16.00;11.33;;;23.70;99.90;;;;;;5047345;28;20199;-64
2022/07/21 00:59:51;;;;;;;14.60;11.97;;;23.70;99.90;;;;;;5047591;28;20210;-64
2022/07/21 01:02:17;;;;;;;19.83;12.20;;;23.60;1.00;;;;;;5050370;28;20444;-62
2022/07/21 01:04:43;;;;;;;13.77;11.20;;;23.60;1.00;;;;;;5050819;28;20257;-65
2022/07/21 01:07:09;;;;;;;11.73;10.73;;;23.60;99.90;;;;;;5034055;28;20174;-65
2022/07/21 01:09:35;;;;;;;13.17;11.97;;;23.50;99.90;;;;;;5050836;28;20416;-64
2022/07/21 01:12:02;;;;;;;14.10;12.40;;;23.60;99.90;;;;;;5051842;28;20586;-63
2022/07/21 01:14:30;;;;;;;15.20;13.50;;;23.60;99.90;;;;;;5051547;28;20425;-65
2022/07/21 01:16:56;;;;;;;17.73;13.37;;;23.50;99.90;;;;;;5051314;28;20448;-64
2022/07/21 01:19:22;;;;;;;13.33;12.13;;;23.60;99.90;;;;;;5052264;28;20990;-64
2022/07/21 01:21:50;;;;;;;15.70;13.00;;;23.60;45.60;;;;;;5064125;28;20549;-62
2022/07/21 01:24:16;;;;;;;14.77;13.37;;;23.60;62.80;;;;;;5050869;28;20183;-63
2022/07/21 01:26:43;;;;;;;15.60;13.90;;;23.60;1.00;;;;;;5051376;28;20412;-65
2022/07/21 01:29:10;;;;;;;15.73;14.20;;;23.50;99.90;;;;;;5031652;28;20628;-65
2022/07/21 01:31:36;;;;;;;14.40;13.20;;;23.30;1.00;;;;;;5032818;28;20418;-65
2022/07/21 01:34:02;;;;;;;18.93;12.83;;;23.00;1.00;;;;;;5030076;28;20798;-63
2022/07/21 01:36:28;;;;;;;15.67;14.07;;;23.00;1.00;;;;;;5031044;28;20493;-65
2022/07/21 01:41:38;;;;;;;25.57;14.20;;;23.20;99.90;;;;;;5031612;28;20329;-66
2022/07/21 01:44:07;;;;;;;16.13;14.63;;;23.20;99.90;;;;;;5041013;28;20944;-65
2022/07/21 01:46:37;;;;;;;16.20;14.80;;;23.30;99.90;;;;;;5071392;28;20654;-64
2022/07/21 01:49:04;;;;;;;15.43;13.80;;;23.10;1.00;;;;;;5069699;28;20763;-65
2022/07/21 01:51:30;;;;;;;17.83;15.33;;;22.90;1.00;;;;;;5071999;28;20412;-64
2022/07/21 01:53:56;;;;;;;35.20;15.70;;;22.90;1.00;;;;;;5073715;28;20404;-64
2022/07/21 01:56:24;;;;;;;20.10;15.30;;;22.90;1.00;;;;;;5071869;28;21045;-64
2022/07/21 01:58:52;;;;;;;20.00;15.27;;;23.00;1.00;;;;;;5069656;28;20173;-63
2022/07/21 02:01:19;;;;;;;19.97;14.83;;;23.10;1.00;;;;;;5074325;28;20442;-64
2022/07/21 02:03:45;;;;;;;19.77;15.10;;;23.10;1.00;;;;;;5057798;28;20920;-65
2022/07/21 02:06:12;;;;;;;18.13;16.20;;;23.00;1.00;;;;;;5076621;28;20833;-64
2022/07/21 02:08:37;;;;;;;159.17;27.03;;;23.00;1.00;;;;;;5077738;28;20409;-64
2022/07/21 02:11:04;;;;;;;18.90;14.87;;;23.00;1.00;;;;;;5078347;28;20408;-63
2022/07/21 02:13:30;;;;;;;22.70;16.57;;;23.10;1.00;;;;;;5078066;28;20186;-65
2022/07/21 02:15:56;;;;;;;22.00;15.80;;;23.10;1.00;;;;;;5082134;28;20419;-64
2022/07/21 02:18:22;;;;;;;24.47;16.43;;;23.10;1.00;;;;;;5080032;28;20198;-63
2022/07/21 02:20:47;;;;;;;19.53;16.83;;;23.00;1.00;;;;;;5067575;28;20253;-64
2022/07/21 02:23:14;;;;;;;19.10;15.87;;;23.00;1.00;;;;;;5058016;28;20204;-65
2022/07/21 02:25:41;;;;;;;19.57;15.57;;;23.00;1.00;;;;;;5049613;28;20179;-64
2022/07/21 02:28:06;;;;;;;18.23;14.77;;;23.00;1.00;;;;;;5048849;28;20413;-65
2022/07/21 02:30:32;;;;;;;25.10;15.53;;;23.00;1.00;;;;;;5049883;28;20858;-64
2022/07/21 02:32:58;;;;;;;18.73;16.60;;;23.10;1.00;;;;;;5032083;28;20318;-64
2022/07/21 02:35:24;;;;;;;16.73;15.13;;;23.00;1.00;;;;;;5029623;28;20179;-65
2022/07/21 02:37:50;;;;;;;20.83;16.83;;;23.10;1.00;;;;;;5029590;28;20203;-64
2022/07/21 02:40:15;;;;;;;16.50;14.90;;;23.10;1.00;;;;;;5029284;28;20168;-63
2022/07/21 02:42:41;;;;;;;18.40;16.60;;;23.10;1.00;;;;;;5029894;28;20725;-64
2022/07/21 02:45:08;;;;;;;37.67;18.10;;;23.00;1.00;;;;;;5056665;28;20723;-63
2022/07/21 02:47:57;;;;;;;18.30;16.57;;;23.10;1.00;;;;;;5069227;28;20485;-64
2022/07/21 02:50:26;;;;;;;17.87;15.70;;;23.10;1.00;;;;;;5068441;28;20389;-62
2022/07/21 02:53:00;;;;;;;53.03;22.40;;;23.10;1.00;;;;;;5069283;28;20436;-64
2022/07/21 02:55:27;;;;;;;18.83;16.83;;;23.10;1.00;;;;;;5069243;28;20450;-63
2022/07/21 02:58:16;;;;;;;21.13;17.37;;;23.10;1.00;;;;;;5068473;28;21237;-64
2022/07/21 03:00:45;;;;;;;21.93;15.87;;;23.00;1.00;;;;;;5069522;28;20399;-63
2022/07/21 03:03:11;;;;;;;17.60;15.90;;;23.00;1.00;;;;;;5068813;28;20428;-64
2022/07/21 03:05:38;;;;;;;18.80;16.87;;;23.00;1.00;;;;;;5068639;28;20919;-63
2022/07/21 03:08:05;;;;;;;17.30;15.70;;;22.90;99.90;;;;;;5068887;28;20465;-64
2022/07/21 03:10:31;;;;;;;38.47;18.70;;;22.90;99.90;;;;;;5068395;28;20405;-64
2022/07/21 03:12:57;;;;;;;30.20;19.03;;;22.90;99.90;;;;;;5068719;28;20424;-63
2022/07/21 03:15:22;;;;;;;29.03;18.87;;;22.90;99.90;;;;;;5069645;28;20223;-63
2022/07/21 03:17:48;;;;;;;25.30;17.23;;;22.90;99.90;;;;;;5068860;28;20209;-66
2022/07/21 03:20:14;;;;;;;24.13;15.30;;;22.90;99.90;;;;;;5066047;28;20210;-64
2022/07/21 03:22:40;;;;;;;29.13;19.17;;;23.00;37.50;;;;;;5060951;28;20178;-64
2022/07/21 03:25:06;;;;;;;44.23;20.30;;;22.90;96.40;;;;;;5048568;28;20431;-63
2022/07/21 03:27:35;;;;;;;29.53;17.40;;;23.00;25.60;;;;;;5048817;28;20194;-63
2022/07/21 03:30:05;;;;;;;23.97;19.27;;;23.10;1.00;;;;;;5052413;28;20437;-61
2022/07/21 03:32:30;;;;;;;47.07;21.10;;;23.10;1.00;;;;;;5061970;28;20452;-63
2022/07/21 03:34:56;;;;;;;25.53;18.00;;;23.10;1.00;;;;;;5050471;28;20973;-61
2022/07/21 03:37:22;;;;;;;33.90;19.67;;;23.10;1.00;;;;;;5065018;28;20476;-63
2022/07/21 03:39:47;;;;;;;25.63;18.27;;;23.00;1.00;;;;;;5052493;28;20159;-63
2022/07/21 03:42:13;;;;;;;35.00;19.60;;;23.10;1.00;;;;;;5060412;28;20196;-61
2022/07/21 03:44:39;;;;;;;36.40;19.30;;;23.10;1.00;;;;;;5058436;28;20572;-61
2022/07/21 03:47:05;;;;;;;28.63;17.60;;;23.00;1.00;;;;;;5048546;28;20657;-63
2022/07/21 03:49:30;;;;;;;29.03;18.60;;;23.00;1.00;;;;;;5047432;28;20175;-65
2022/07/21 03:51:56;;;;;;;26.10;19.00;;;23.00;1.00;;;;;;5049035;28;20210;-62
2022/07/21 03:54:22;;;;;;;33.67;18.83;;;22.90;1.00;;;;;;5048028;28;20205;-62
2022/07/21 03:56:48;;;;;;;44.33;19.13;;;22.80;99.90;;;;;;5049218;28;20203;-61
2022/07/21 03:59:13;;;;;;;49.90;19.87;;;22.90;99.90;;;;;;5047751;28;20183;-61
2022/07/21 04:01:39;;;;;;;59.90;21.43;;;22.90;38.50;;;;;;5063259;22;20178;-69
2022/07/21 04:04:05;;;;;;;40.77;19.80;;;22.80;99.90;;;;;;5047605;28;20167;-69
2022/07/21 04:06:30;;;;;;;34.23;19.10;;;22.80;99.90;;;;;;5048137;28;20174;-69
2022/07/21 04:08:56;;;;;;;28.57;21.43;;;22.90;99.90;;;;;;5028664;28;20182;-68
2022/07/21 04:11:22;;;;;;;35.73;19.23;;;22.90;99.90;;;;;;5048159;28;20174;-68
2022/07/21 04:13:47;;;;;;;35.33;20.23;;;23.00;1.00;;;;;;5047337;28;20167;-69
2022/07/21 04:16:13;;;;;;;49.93;20.63;;;22.90;99.90;;;;;;5047989;28;20175;-69
2022/07/21 04:18:39;;;;;;;23.20;20.70;;;23.00;38.80;;;;;;5046750;28;20167;-68
2022/07/21 04:21:04;;;;;;;24.57;19.07;;;22.90;99.90;;;;;;5056232;28;20182;-70
2022/07/21 04:23:31;;;;;;;39.23;21.73;;;22.80;1.00;;;;;;5054801;28;20205;-69
2022/07/21 04:25:57;;;;;;;34.43;19.97;;;22.70;1.00;;;;;;5048297;28;20197;-68
2022/07/21 04:28:23;;;;;;;26.87;19.20;;;22.70;1.00;;;;;;5046503;28;20503;-69
2022/07/21 04:30:48;;;;;;;25.20;19.03;;;22.70;1.00;;;;;;5048256;28;20595;-68
2022/07/21 04:33:14;;;;;;;45.60;18.83;;;22.80;99.90;;;;;;5045375;28;20728;-69
2022/07/21 04:35:40;;;;;;;25.40;18.23;;;22.90;99.90;;;;;;5048180;28;20177;-69
2022/07/21 04:38:06;;;;;;;20.50;18.30;;;22.90;99.90;;;;;;5050767;28;20231;-69
2022/07/21 04:40:31;;;;;;;41.33;19.77;;;22.80;99.90;;;;;;5050182;28;20210;-69
2022/07/21 04:42:57;;;;;;;39.70;21.33;;;22.80;99.90;;;;;;5050887;28;20194;-69
2022/07/21 04:45:23;;;;;;;42.30;20.27;;;22.90;17.60;;;;;;5067723;28;20166;-69
2022/07/21 04:47:51;;;;;;;20.17;18.17;;;22.80;99.90;;;;;;5070712;28;20262;-69
2022/07/21 04:50:19;;;;;;;27.37;19.30;;;22.70;99.90;;;;;;5069035;28;20166;-69
2022/07/21 04:52:45;;;;;;;34.93;19.07;;;22.70;99.90;;;;;;5068383;28;20432;-68
2022/07/21 04:55:12;;;;;;;51.40;21.17;;;22.70;99.90;;;;;;5068928;28;20785;-69
2022/07/21 04:57:43;;;;;;;25.83;19.53;;;22.80;65.00;;;;;;5064951;28;20444;-69
2022/07/21 05:00:12;;;;;;;47.73;20.17;;;22.90;1.00;;;;;;5057202;28;20410;-67
2022/07/21 05:02:37;;;;;;;21.40;19.30;;;23.00;1.00;;;;;;5061014;28;20488;-68
2022/07/21 05:05:04;;;;;;;21.97;17.70;;;22.90;1.00;;;;;;5070448;28;20475;-69
2022/07/21 05:07:30;;;;;;;24.90;18.40;;;22.80;32.60;;;;;;5070084;28;20230;-70
2022/07/21 05:09:57;;;;;;;31.60;19.87;;;22.90;32.10;;;;;;5069901;28;20404;-69
2022/07/21 05:12:22;;;;;;;35.80;20.00;;;22.80;69.40;;;;;;5069164;28;20224;-70
2022/07/21 05:14:48;;;;;;;32.10;19.17;;;22.90;99.90;;;;;;5052055;28;20425;-69
2022/07/21 05:17:14;;;;;;;32.37;20.83;;;22.90;99.90;;;;;;5048456;28;20209;-70
2022/07/21 05:19:41;;;;;;;34.87;21.60;;;22.90;99.90;;;;;;5047330;28;20294;-69
2022/07/21 05:22:07;;;;;;;38.37;20.30;;;22.80;1.00;;;;;;5059737;28;20273;-70
2022/07/21 05:24:33;;;;;;;36.10;22.83;;;22.70;14.50;;;;;;5055707;28;20548;-70
2022/07/21 05:26:58;;;;;;;54.33;22.50;;;22.80;1.00;;;;;;5035058;28;20778;-70
2022/07/21 05:29:24;;;;;;;35.47;20.70;;;22.80;1.00;;;;;;5061204;28;20159;-71
2022/07/21 05:31:50;;;;;;;25.87;19.30;;;22.80;1.00;;;;;;5040713;28;20227;-70
2022/07/21 05:34:15;;;;;;;35.03;21.30;;;22.80;99.90;;;;;;5028996;28;20168;-71
2022/07/21 05:36:41;;;;;;;28.43;20.60;;;22.70;99.90;;;;;;5029435;28;20188;-70
2022/07/21 05:39:07;;;;;;;24.17;18.80;;;22.70;99.90;;;;;;5028237;28;20342;-71
2022/07/21 05:41:32;;;;;;;30.20;21.20;;;22.80;99.90;;;;;;5040326;28;20178;-71
2022/07/21 05:43:58;;;;;;;22.77;19.50;;;22.90;1.00;;;;;;5047337;28;20328;-69
2022/07/21 05:46:24;;;;;;;54.53;20.20;;;22.80;1.00;;;;;;5051772;28;20170;-70
2022/07/21 05:48:49;;;;;;;34.37;17.53;;;22.80;1.00;;;;;;5049648;28;20262;-69
2022/07/21 05:51:15;;;;;;;21.90;18.37;;;22.90;1.00;;;;;;5052192;28;20185;-71
2022/07/21 05:53:41;;;;;;;29.90;17.77;;;23.10;99.90;;;;;;5050457;28;20210;-71
2022/07/21 05:56:07;;;;;;;24.20;19.60;;;23.20;99.90;;;;;;5062692;28;20170;-68
2022/07/21 05:58:36;;;;;;;33.77;20.30;;;23.30;23.90;;;;;;5065993;28;20217;-69
2022/07/21 06:01:08;;;;;;;20.83;18.13;;;23.40;1.00;;;;;;5068567;28;20408;-69
2022/07/21 06:03:38;;;;;;;19.97;17.00;;;23.50;1.00;;;;;;5067041;28;20525;-69
2022/07/21 06:06:05;;;;;;;84.60;24.07;;;23.40;1.00;;;;;;5065690;28;20505;-69
2022/07/21 06:08:31;;;;;;;29.03;17.93;;;23.40;99.90;;;;;;5066141;28;20681;-69
2022/07/21 06:10:56;;;;;;;23.60;16.83;;;23.30;1.00;;;;;;5059476;28;20493;-68
2022/07/21 06:13:22;;;;;;;57.37;19.10;;;23.20;1.00;;;;;;5066378;28;20190;-69
2022/07/21 06:15:48;;;;;;;44.63;17.97;;;23.20;99.90;;;;;;5067465;28;20163;-69
2022/07/21 06:18:14;;;;;;;39.67;18.93;;;23.50;99.90;;;;;;5049273;28;20208;-69
2022/07/21 06:20:41;;;;;;;22.77;16.10;;;23.60;99.90;;;;;;5064899;28;20257;-69
2022/07/21 06:23:07;;;;;;;16.03;13.60;;;23.90;1.00;;;;;;5066576;28;20527;-71
2022/07/21 06:25:33;;;;;;;17.93;13.40;;;24.10;1.00;;;;;;5064217;28;20414;-68
2022/07/21 06:27:59;;;;;;;14.23;12.47;;;24.20;1.00;;;;;;5064595;28;20416;-70
2022/07/21 06:30:25;;;;;;;12.80;11.60;;;24.20;1.00;;;;;;5058448;28;20477;-68
2022/07/21 06:32:51;;;;;;;11.67;10.67;;;24.10;1.00;;;;;;5045721;28;21125;-67
2022/07/21 06:35:16;;;;;;;11.90;10.90;;;24.00;1.00;;;;;;5065242;28;20185;-69
2022/07/21 06:37:46;;;;;;;11.80;10.60;;;24.00;1.00;;;;;;5066909;28;20202;-69
2022/07/21 06:40:12;;;;;;;12.30;11.10;;;24.00;1.00;;;;;;5066550;28;20249;-70
2022/07/21 06:42:38;;;;;;;13.73;12.23;;;24.00;1.00;;;;;;5070379;28;20456;-68
2022/07/21 06:45:05;;;;;;;11.67;10.60;;;24.00;1.00;;;;;;5069224;28;20464;-69
2022/07/21 06:47:30;;;;;;;19.20;10.87;;;24.00;1.00;;;;;;5069127;28;20618;-69
2022/07/21 06:50:02;;;;;;;15.27;11.10;;;24.10;1.00;;;;;;5049690;28;20496;-70
2022/07/21 06:52:28;;;;;;;18.30;12.67;;;24.10;1.00;;;;;;5068711;28;20282;-68
2022/07/21 06:54:54;;;;;;;17.23;11.53;;;24.00;1.00;;;;;;5068300;28;20436;-68
2022/07/21 06:57:19;;;;;;;10.90;9.90;;;24.10;1.00;;;;;;5064681;28;20971;-69
2022/07/21 06:59:45;;;;;;;28.40;12.90;;;24.10;99.90;;;;;;5065433;28;20167;-67
2022/07/21 07:02:11;;;;;;;55.57;15.10;;;24.10;99.90;;;;;;5067884;28;20216;-68
2022/07/21 07:04:36;;;;;;;12.70;10.83;;;24.10;99.90;;;;;;5068466;28;20245;-68
2022/07/21 07:07:02;;;;;;;15.90;11.30;;;24.10;99.90;;;;;;5066333;28;20174;-69
2022/07/21 07:09:28;;;;;;;12.47;11.07;;;24.10;99.90;;;;;;5059716;28;20256;-68
2022/07/21 07:12:02;;;;;;;11.90;10.90;;;24.10;99.90;;;;;;5065016;28;20201;-68
2022/07/21 07:14:31;;;;;;;12.07;10.93;;;24.00;99.90;;;;;;5064287;28;20190;-68
2022/07/21 07:16:58;;;;;;;12.17;10.97;;;24.00;99.90;;;;;;5064920;28;20456;-68
2022/07/21 07:19:24;;;;;;;15.13;11.10;;;24.00;99.90;;;;;;5066283;28;21018;-68
2022/07/21 07:21:50;;;;;;;16.80;11.83;;;24.00;99.90;;;;;;5064834;28;20878;-69
2022/07/21 07:24:15;;;;;;;12.40;11.10;;;24.10;99.90;;;;;;5066970;28;20546;-68
2022/07/21 07:26:41;;;;;;;11.10;10.10;;;24.20;99.90;;;;;;5066941;28;20174;-68
2022/07/21 07:29:07;;;;;;;12.30;11.03;;;24.30;99.90;;;;;;5066149;28;20510;-68
2022/07/21 07:31:33;;;;;;;11.77;10.60;;;24.30;99.90;;;;;;5066825;28;20169;-68
2022/07/21 07:33:58;;;;;;;12.73;11.40;;;24.20;99.90;;;;;;5066752;28;20204;-68
2022/07/21 07:36:25;;;;;;;10.43;9.50;;;24.20;99.90;;;;;;5067020;28;20238;-68
2022/07/21 07:38:52;;;;;;;56.73;13.83;;;24.20;99.90;;;;;;5065951;28;20631;-68
2022/07/21 07:41:19;;;;;;;11.97;10.87;;;24.10;99.90;;;;;;5067073;28;20400;-68
2022/07/21 07:43:45;;;;;;;12.40;11.20;;;24.10;99.90;;;;;;5064150;28;20440;-68
2022/07/21 07:46:12;;;;;;;13.50;12.30;;;24.20;99.90;;;;;;5064677;28;20423;-69
2022/07/21 07:48:40;;;;;;;14.33;13.03;;;24.20;99.90;;;;;;5066028;28;20445;-69
2022/07/21 07:51:06;;;;;;;13.20;11.87;;;24.30;99.90;;;;;;5067123;28;20404;-68
2022/07/21 07:53:32;;;;;;;11.83;10.63;;;24.20;99.90;;;;;;5066562;28;20527;-69
2022/07/21 07:55:58;;;;;;;11.67;10.67;;;24.20;99.90;;;;;;5066577;28;20405;-70
2022/07/21 07:58:24;;;;;;;11.27;10.27;;;24.10;99.90;;;;;;5047522;28;20464;-70
2022/07/21 08:00:49;;;;;;;11.10;10.13;;;24.10;99.90;;;;;;5064432;28;20178;-69
2022/07/21 08:03:15;;;;;;;11.87;10.67;;;24.10;99.90;;;;;;5063227;28;20209;-69
2022/07/21 08:05:41;;;;;;;10.83;9.93;;;24.30;99.90;;;;;;5065295;28;20202;-70
2022/07/21 08:08:07;;;;;;;11.43;10.30;;;24.40;99.90;;;;;;5064420;28;20180;-69
2022/07/21 08:10:33;;;;;;;12.13;11.13;;;24.40;99.90;;;;;;5065585;28;20162;-68
2022/07/21 08:12:59;;;;;;;10.63;9.63;;;24.40;99.90;;;;;;5066407;28;20653;-68
2022/07/21 08:15:25;;;;;;;10.70;9.67;;;24.50;99.90;;;;;;5067217;28;20424;-70
2022/07/21 08:17:51;;;;;;;11.37;10.17;;;24.60;99.90;;;;;;5066431;28;20235;-70
2022/07/21 08:20:16;;;;;;;10.27;9.27;;;24.40;99.90;;;;;;5059068;28;20257;-67
2022/07/21 08:22:42;;;;;;;12.23;10.00;;;24.30;99.90;;;;;;5067960;28;20539;-69
2022/07/21 08:25:08;;;;;;;15.73;10.20;;;24.30;99.90;;;;;;5049379;28;20509;-70
2022/07/21 08:27:34;;;;;;;15.13;10.30;;;24.40;99.90;;;;;;5067749;28;20186;-70
2022/07/21 08:29:59;;;;;;;12.20;10.73;;;24.50;99.90;;;;;;5063771;28;20185;-70
2022/07/21 08:32:25;;;;;;;11.53;10.43;;;24.80;99.90;;;;;;5055316;28;20716;-71
2022/07/21 08:34:51;;;;;;;93.30;17.90;;;24.90;99.90;;;;;;5047427;28;20194;-71
2022/07/21 08:37:20;;;;;;;11.40;9.23;;;25.10;99.90;;;;;;5047987;28;20194;-71
2022/07/21 08:39:47;;;;;;;11.97;10.83;;;25.20;99.90;;;;;;5048309;28;20651;-71
2022/07/21 08:42:14;;;;;;;11.57;10.57;;;25.10;99.90;;;;;;5048976;28;20759;-70
2022/07/21 08:44:40;;;;;;;11.80;9.50;;;25.20;99.90;;;;;;5058220;28;20905;-71
2022/07/21 08:47:06;;;;;;;14.77;10.00;;;25.50;99.90;;;;;;5067782;28;20417;-71
2022/07/21 08:52:32;;;;;;;11.17;10.03;;;25.70;99.90;;;;;;5064453;28;20452;-69
2022/07/21 08:54:58;;;;;;;11.50;9.67;;;25.30;99.90;;;;;;5067007;28;20420;-70
2022/07/21 08:57:24;;;;;;;11.23;10.13;;;25.20;99.90;;;;;;5068166;28;20221;-70
2022/07/21 08:59:51;;;;;;;16.83;10.40;;;25.10;99.90;;;;;;5067330;28;20428;-70
2022/07/21 09:02:30;;;;;;;10.83;9.73;;;25.20;99.90;;;;;;5068206;28;20442;-70
2022/07/21 09:04:56;;;;;;;11.17;10.17;;;25.20;99.90;;;;;;5067958;28;20210;-69
2022/07/21 09:07:23;;;;;;;11.83;10.73;;;25.10;99.90;;;;;;5058946;28;20438;-71
2022/07/21 09:10:00;;;;;;;15.63;10.93;;;25.30;99.90;;;;;;5033441;28;20435;-70
2022/07/21 09:12:27;;;;;;;24.07;10.97;;;25.50;99.90;;;;;;5058498;28;20439;-71
2022/07/21 09:15:12;;;;;;;26.10;12.80;;;25.60;99.90;;;;;;5065910;28;20424;-70
2022/07/21 09:17:38;;;;;;;22.20;11.17;;;26.10;99.90;;;;;;5044429;28;20447;-70
2022/07/21 09:20:20;;;;;;;11.70;9.47;;;26.40;99.90;;;;;;5064724;28;20488;-69
2022/07/21 09:23:03;;;;;;;10.47;9.37;;;26.40;99.90;;;;;;5069715;28;20192;-70
2022/07/21 09:25:37;;;;;;;22.03;11.60;;;26.70;99.90;;;;;;5071922;28;20491;-71
2022/07/21 09:28:17;;;;;;;11.20;10.00;;;26.80;99.90;;;;;;5071013;28;20468;-69
2022/07/21 09:31:08;;;;;;;14.43;9.77;;;26.90;99.90;;;;;;5068378;28;20821;-71
2022/07/21 09:33:40;;;;;;;17.00;9.63;;;27.10;99.90;;;;;;5064615;28;20427;-70
2022/07/21 09:36:11;;;;;;;11.33;10.33;;;27.20;99.90;;;;;;5071699;28;20489;-70
2022/07/21 09:38:39;;;;;;;10.70;9.60;;;27.20;99.90;;;;;;5069550;28;20518;-70
2022/07/21 09:41:13;;;;;;;15.30;9.93;;;26.90;99.90;;;;;;5071109;28;20457;-72
2022/07/21 09:43:43;;;;;;;14.37;9.87;;;27.00;99.90;;;;;;5069540;28;20415;-71
2022/07/21 09:46:17;;;;;;;30.17;11.60;;;26.80;99.90;;;;;;5071206;28;20404;-71
2022/07/21 09:48:45;;;;;;;11.57;9.77;;;26.70;99.90;;;;;;5069413;28;20950;-70
2022/07/21 09:51:31;;;;;;;15.30;9.83;;;26.90;99.90;;;;;;5070840;28;20419;-71
2022/07/21 09:54:01;;;;;;;18.53;9.30;;;26.70;99.90;;;;;;5049507;28;20909;-70
2022/07/21 09:56:32;;;;;;;9.33;8.43;;;26.40;99.90;;;;;;5056314;28;20977;-71
2022/07/21 09:58:59;;;;;;;11.30;10.10;;;26.00;99.90;;;;;;5051224;28;21012;-71
2022/07/21 10:01:26;;;;;;;16.90;10.00;;;25.70;99.90;;;;;;5052005;28;20416;-71
2022/07/21 10:03:53;;;;;;;13.60;9.43;;;26.30;99.90;;;;;;5051964;28;20472;-71
2022/07/21 10:06:23;;;;;;;14.70;8.73;;;26.80;99.90;;;;;;5070242;28;20400;-71
2022/07/21 10:08:49;;;;;;;20.77;10.47;;;27.00;99.90;;;;;;5050387;28;20535;-71
2022/07/21 10:11:16;;;;;;;15.73;9.60;;;27.50;99.90;;;;;;5070248;28;20404;-70
2022/07/21 10:13:42;;;;;;;47.47;12.20;;;27.10;99.90;;;;;;5069204;28;20426;-71
2022/07/21 10:16:11;;;;;;;13.90;8.53;;;26.80;99.90;;;;;;5070132;28;20400;-70
2022/07/21 10:18:52;;;;;;;9.20;8.30;;;26.40;99.90;;;;;;5068360;28;20479;-71
2022/07/21 10:21:23;;;;;;;10.87;8.33;;;26.60;99.90;;;;;;5049687;28;20426;-71
2022/07/21 10:23:54;;;;;;;34.67;10.20;;;27.30;99.90;;;;;;5069168;28;20412;-71
2022/07/21 10:26:21;;;;;;;26.17;8.80;;;27.60;99.90;;;;;;5069916;28;20392;-70
2022/07/21 10:28:46;;;;;;;18.00;8.37;;;27.60;99.90;;;;;;5068546;28;20698;-72
2022/07/21 10:31:20;;;;;;;11.10;7.97;;;27.40;99.90;;;;;;5066529;28;20504;-70
2022/07/21 10:33:49;;;;;;;20.27;10.10;;;27.40;99.90;;;;;;5048135;28;20273;-72
2022/07/21 10:36:27;;;;;;;21.33;9.40;;;27.10;99.90;;;;;;5048288;28;20429;-70
2022/07/21 10:39:12;;;;;;;8.20;7.30;;;27.20;99.90;;;;;;5048117;28;20441;-69
2022/07/21 10:41:50;;;;;;;20.67;8.87;;;27.50;99.90;;;;;;5050188;28;20393;-70
2022/07/21 10:44:28;;;;;;;9.50;8.57;;;27.90;99.90;;;;;;5056483;28;20392;-70
2022/07/21 10:47:09;;;;;;;15.03;9.23;;;28.00;99.90;;;;;;5069949;28;20411;-70
2022/07/21 10:49:57;;;;;;;22.73;8.87;;;28.10;99.90;;;;;;5067706;28;20962;-71
2022/07/21 10:52:34;;;;;;;16.23;9.40;;;28.00;99.90;;;;;;5070116;28;20497;-72
2022/07/21 10:55:10;;;;;;;68.87;13.27;;;27.90;99.90;;;;;;5069685;28;20460;-70
2022/07/21 10:57:47;;;;;;;30.83;10.97;;;27.80;99.90;;;;;;5069577;28;20485;-71
2022/07/21 11:00:20;;;;;;;11.30;8.93;;;27.50;99.90;;;;;;5069456;28;20404;-71
2022/07/21 11:02:58;;;;;;;23.77;9.50;;;27.50;99.90;;;;;;5069460;28;20428;-71
2022/07/21 11:05:25;;;;;;;18.87;9.43;;;27.30;99.90;;;;;;5069371;28;20863;-70
2022/07/21 11:08:11;;;;;;;13.90;9.13;;;27.40;99.90;;;;;;5068856;28;20916;-71
2022/07/21 11:10:39;;;;;;;20.23;9.10;;;27.40;99.90;;;;;;5069360;28;20920;-69
2022/07/21 11:13:05;;;;;;;16.33;8.70;;;27.40;99.90;;;;;;5069095;28;20477;-69
2022/07/21 11:15:46;;;;;;;24.30;9.90;;;27.30;99.90;;;;;;5069779;28;20411;-69
2022/07/21 11:18:20;;;;;;;30.00;10.30;;;27.70;99.90;;;;;;5068415;28;20443;-70
2022/07/21 11:21:10;;;;;;;30.87;10.00;;;27.60;99.90;;;;;;5066900;28;20412;-71
2022/07/21 11:23:48;;;;;;;136.63;20.33;;;27.50;99.90;;;;;;5062075;28;20811;-70
2022/07/21 11:26:17;;;;;;;43.87;10.40;;;27.70;99.90;;;;;;5068420;28;20415;-70
2022/07/21 11:28:44;;;;;;;10.43;8.63;;;27.70;99.10;;;;;;5067618;28;20419;-69
2022/07/21 11:31:20;;;;;;;9.73;8.10;;;27.80;98.80;;;;;;5066649;28;20399;-72
2022/07/21 11:33:47;;;;;;;9.00;8.30;;;27.80;98.00;;;;;;5048901;28;20843;-71
2022/07/21 11:36:31;;;;;;;15.83;8.90;;;27.80;97.90;;;;;;5048702;28;20909;-71
2022/07/21 11:39:03;;;;;;;11.60;8.60;;;27.50;98.10;;;;;;5029943;28;20568;-69
2022/07/21 11:41:29;;;;;;;12.23;7.97;;;27.50;98.20;;;;;;5049070;28;20849;-72
2022/07/21 11:43:55;;;;;;;41.20;12.00;;;27.30;97.80;;;;;;5050889;28;20404;-70
2022/07/21 11:46:21;;;;;;;33.87;9.87;;;27.50;96.50;;;;;;5068544;28;20264;-70
2022/07/21 11:48:47;;;;;;;17.33;10.23;;;27.50;96.10;;;;;;5066019;28;20897;-70
2022/07/21 11:51:12;;;;;;;10.93;8.80;;;27.60;96.50;;;;;;5068906;28;20199;-70
2022/07/21 11:53:45;;;;;;;10.20;9.00;;;27.30;96.40;;;;;;5067919;28;20280;-70
2022/07/21 11:56:17;;;;;;;18.20;9.30;;;26.70;96.80;;;;;;5050907;28;20646;-69
2022/07/21 11:58:44;;;;;;;9.20;8.40;;;26.90;97.40;;;;;;5067405;28;20482;-70
2022/07/21 12:01:10;;;;;;;9.27;8.57;;;27.00;97.10;;;;;;5068663;28;20408;-72
2022/07/21 12:03:48;;;;;;;9.27;8.33;;;26.90;97.00;;;;;;5067990;28;20537;-71
2022/07/21 12:06:14;;;;;;;14.23;9.37;;;26.50;97.10;;;;;;5068925;28;20380;-71
2022/07/21 12:08:42;;;;;;;10.77;9.87;;;26.30;99.90;;;;;;5067393;28;20431;-70
2022/07/21 12:11:10;;;;;;;10.67;9.53;;;26.50;98.60;;;;;;5069390;28;20404;-70
2022/07/21 12:13:56;;;;;;;22.37;11.90;;;27.00;98.40;;;;;;5068338;28;20436;-71
2022/07/21 12:16:22;;;;;;;20.57;9.20;;;27.20;97.80;;;;;;5064214;28;20754;-72
2022/07/21 12:18:48;;;;;;;10.40;9.00;;;27.10;98.50;;;;;;5067410;28;20450;-71
2022/07/21 12:21:14;;;;;;;12.70;11.10;;;26.90;98.00;;;;;;5060478;28;20512;-71
2022/07/21 12:23:40;;;;;;;24.43;10.60;;;26.90;98.20;;;;;;5067044;28;20451;-71
2022/07/21 12:26:06;;;;;;;13.17;10.33;;;27.10;98.30;;;;;;5068180;28;20519;-71
2022/07/21 12:28:52;;;;;;;11.83;10.10;;;27.30;98.10;;;;;;5066866;28;20415;-71
2022/07/21 12:31:23;;;;;;;11.40;10.23;;;27.40;97.60;;;;;;5046516;28;20212;-70
2022/07/21 12:33:53;;;;;;;17.23;10.60;;;27.60;97.30;;;;;;5047515;28;20392;-71
2022/07/21 12:36:20;;;;;;;10.00;9.03;;;27.80;95.90;;;;;;5049226;28;20427;-71
2022/07/21 12:38:49;;;;;;;12.17;9.90;;;27.40;94.70;;;;;;5065908;28;20404;-71
2022/07/21 12:41:17;;;;;;;13.57;9.40;;;27.40;95.80;;;;;;5065038;28;20411;-70
2022/07/21 12:43:52;;;;;;;11.90;8.87;;;27.80;95.70;;;;;;5066445;28;20432;-71